This is the latest recevied weather packets stored in our database for station/object WB0OCV. If no packets are shown the sender has not sent any weather packets the latest 10 day(s).
| Time | Temp. | Humidity | Pressure | Rain* | Wind** | Luminosity | Snow |
|---|---|---|---|---|---|---|---|
| 1778087702 | 20.56° C | 68% | 1014 hPa | 0 mm | - | 602 W/m² | - |
| 1778087399 | 21.11° C | 67% | 1014.1 hPa | 0 mm | - | 736 W/m² | - |
| 1778087096 | 20° C | 70% | 1014.1 hPa | 0 mm | - | 1018 W/m² | - |
| 1778086794 | 19.44° C | 71% | 1014.3 hPa | 0 mm | - | 337 W/m² | - |
| 1778086492 | 20° C | 71% | 1014.3 hPa | 0 mm | - | 315 W/m² | - |
| 1778086188 | 19.44° C | 72% | 1014.4 hPa | 0 mm | - | 648 W/m² | - |
| 1778085885 | 19.44° C | 72% | 1014.4 hPa | 0 mm | - | 268 W/m² | - |
| 1778085583 | 19.44° C | 72% | 1014.4 hPa | 0 mm | - | 276 W/m² | - |
| 1778085278 | 19.44° C | 71% | 1014.6 hPa | 0 mm | - | 263 W/m² | - |
| 1778084972 | 20° C | 69% | 1014.5 hPa | 0 mm | - | 277 W/m² | - |
| 1778084671 | 20° C | 70% | 1014.4 hPa | 0 mm | - | 366 W/m² | - |
| 1778084368 | 20° C | 70% | 1014.7 hPa | 0 mm | - | 299 W/m² | - |
| 1778084066 | 20.56° C | 68% | 1014.7 hPa | 0 mm | - | 387 W/m² | - |
| 1778083763 | 20.56° C | 67% | 1014.8 hPa | 0 mm | - | 487 W/m² | - |
| 1778083460 | 21.11° C | 66% | 1014.8 hPa | 0 mm | - | 804 W/m² | - |
| 1778083158 | 20.56° C | 66% | 1015.1 hPa | 0 mm | - | 832 W/m² | - |
| 1778082855 | 20.56° C | 66% | 1015.1 hPa | 0 mm | - | 741 W/m² | - |
| 1778081737 | 20.56° C | 70% | 1015.3 hPa | 0 mm | - | 475 W/m² | - |
| 1778081434 | 20.56° C | 68% | 1015.4 hPa | 0 mm | - | 627 W/m² | - |
| 1778081131 | 21.11° C | 66% | 1015.5 hPa | 0 mm | - | 672 W/m² | - |
| 1778080829 | 20.56° C | 69% | 1015.3 hPa | 0 mm | - | 789 W/m² | - |
| 1778080526 | 20.56° C | 68% | 1015.4 hPa | 0 mm | - | 698 W/m² | - |
| 1778080224 | 20.56° C | 66% | 1015.5 hPa | 0 mm | - | 569 W/m² | - |
| 1778079920 | 20° C | 69% | 1015.3 hPa | 0 mm | - | 589 W/m² | - |
| 1778079617 | 20° C | 70% | 1015.5 hPa | 0 mm | - | 772 W/m² | - |
* Rain latest hour (hover to see other rain measurements)
** Current wind speed in m/s (hover to see current wind gust speed)